Victory Mills, New York
Current Conditions -  °F | °C
As of 3:53 AM on Saturday 01 Nov 2014 (Local Time) from KGFL Reporting Station
Broken Clouds Broken Clouds  
Wind Chill: 37°   Ceiling: 6000
Heat Index: 40°   Visibility: 10mi
Dew Point: 30°   Wind: 5mph
Humidity: 68%   Direction: 40°NE
Pressure: 29.97"   Gusts: NA
Location:  43.09°N, 73.59°W
Report Text: KGFL 010753Z AUTO 04004KT 10SM BKN060 04/M01 A2997 RMK AO2 SLP152 T00441011
Loading
Personal Weather Stations






























Interactive Weather Map
Tropical Storm Tracking
New forecast layout! Learn more

10-Day Weather Forecast

Advertisements
Track Severe Weather on mobile